Time;durP1;ratioP1;P1;durP2;ratioP2;P2;SDS_P1;SDS_P2;PMS_P1;PMS_P2;Temp;Humidity;BMP_temperature;BMP_pressure;BME280_temperature;BME280_humidity;BME280_pressure;Samples;Min_cycle;Max_cycle;Signal;HPM_P1;HPM_P2
2022/05/23 00:00:37;;;;;;;4.63;3.00;;;;;;;21.01;47.82;94232.09;5092503;28;20194;-82
2022/05/23 00:03:04;;;;;;;6.23;3.07;;;;;;;20.90;47.67;94219.03;5092163;28;20205;-82
2022/05/23 00:05:31;;;;;;;4.33;2.80;;;;;;;20.99;47.71;94235.94;5092278;28;20208;-83
2022/05/23 00:08:00;;;;;;;2.90;2.70;;;;;;;20.98;47.84;94239.53;5092148;28;20232;-82
2022/05/23 00:10:26;;;;;;;3.83;2.63;;;;;;;20.95;47.89;94235.56;5092130;28;20186;-81
2022/05/23 00:12:53;;;;;;;2.77;2.57;;;;;;;20.77;47.77;94205.13;5092405;28;20192;-81
2022/05/23 00:15:22;;;;;;;3.00;2.80;;;;;;;20.85;47.71;94227.44;5092352;28;20197;-82
2022/05/23 00:17:49;;;;;;;3.07;2.87;;;;;;;20.86;47.54;94229.03;5092599;28;20189;-83
2022/05/23 00:20:19;;;;;;;3.40;2.93;;;;;;;20.82;47.55;94209.69;5092249;28;20196;-82
2022/05/23 00:22:46;;;;;;;3.90;2.83;;;;;;;20.92;47.60;94224.78;5092086;28;20189;-81
2022/05/23 00:25:14;;;;;;;3.10;2.90;;;;;;;20.89;47.46;94226.00;5092095;28;20202;-83
2022/05/23 00:27:43;;;;;;;2.67;2.47;;;;;;;20.88;47.57;94224.41;5092324;28;20182;-81
2022/05/23 00:30:13;;;;;;;2.83;2.57;;;;;;;20.85;47.49;94229.22;5093993;28;20203;-83
2022/05/23 00:35:26;;;;;;;2.90;2.70;;;;;;;20.82;47.62;94216.69;5093147;28;20201;-81
2022/05/23 00:37:56;;;;;;;2.50;2.40;;;;;;;20.80;47.54;94220.28;5093061;28;20623;-83
2022/05/23 00:40:52;;;;;;;3.00;2.70;;;;;;;20.78;47.57;94217.09;5091614;28;20182;-83
2022/05/23 00:43:20;;;;;;;2.80;2.60;;;;;;;20.70;47.46;94212.16;5028724;28;20699;-82
2022/05/23 00:45:51;;;;;;;3.20;2.73;;;;;;;20.75;47.66;94224.53;5028980;28;20211;-83
2022/05/23 00:48:22;;;;;;;3.00;2.80;;;;;;;20.31;47.75;94161.25;5028713;28;20208;-80
2022/05/23 00:50:54;;;;;;;4.13;2.43;;;;;;;20.71;47.65;94223.34;5029033;28;20196;-80
2022/05/23 00:53:37;;;;;;;2.93;2.37;;;;;;;20.69;47.69;94228.78;5028750;28;20202;-81
2022/05/23 00:56:07;;;;;;;2.63;2.43;;;;;;;20.68;47.75;94231.56;5028772;28;20715;-79
2022/05/23 00:58:40;;;;;;;2.83;2.63;;;;;;;20.00;47.69;94129.13;5028474;28;20614;-81
2022/05/23 01:01:11;;;;;;;2.87;2.67;;;;;;;20.54;47.69;94215.28;5028916;28;20747;-81
2022/05/23 01:03:40;;;;;;;3.13;2.77;;;;;;;20.52;47.80;94212.09;5028669;28;20192;-83
2022/05/23 01:06:08;;;;;;;4.33;2.33;;;;;;;20.62;47.60;94227.22;5028714;28;20274;-82
2022/05/23 01:08:36;;;;;;;3.23;2.60;;;;;;;20.61;47.76;94233.44;5028460;28;20254;-82
2022/05/23 01:11:04;;;;;;;5.30;3.20;;;;;;;20.60;47.62;94237.03;5028625;28;20225;-83
2022/05/23 01:13:31;;;;;;;3.50;2.40;;;;;;;20.38;47.87;94200.16;5028509;28;20191;-79
2022/05/23 01:15:58;;;;;;;3.30;2.57;;;;;;;20.57;47.78;94234.84;5028430;28;20196;-80
2022/05/23 01:18:25;;;;;;;3.20;2.37;;;;;;;20.55;47.73;94229.84;5043163;28;20190;-80
2022/05/23 01:20:57;;;;;;;2.50;2.10;;;;;;;20.53;47.79;94226.69;5090739;28;20729;-81
2022/05/23 01:23:35;;;;;;;3.30;2.63;;;;;;;19.66;47.69;94088.81;5090889;28;20197;-81
2022/05/23 01:26:04;;;;;;;2.50;2.30;;;;;;;19.99;47.92;94134.50;5091342;28;20197;-80
2022/05/23 01:28:34;;;;;;;2.77;2.57;;;;;;;20.26;47.74;94185.28;5090485;28;20217;-78
2022/05/23 01:31:01;;;;;;;2.93;2.63;;;;;;;20.41;47.87;94205.75;5091436;28;20219;-80
2022/05/23 01:33:28;;;;;;;3.63;2.33;;;;;;;20.41;47.81;94207.53;5095306;28;20237;-80
2022/05/23 01:35:57;;;;;;;3.83;2.37;;;;;;;20.06;48.00;94158.63;5092752;28;20197;-80
2022/05/23 01:38:24;;;;;;;3.33;2.50;;;;;;;20.25;47.83;94185.47;5091007;28;20193;-79
2022/05/23 01:40:50;;;;;;;2.37;2.27;;;;;;;20.07;48.18;94157.63;5090481;28;20185;-81
2022/05/23 01:43:19;;;;;;;2.60;2.40;;;;;;;20.35;48.08;94211.00;5090549;28;20653;-81
2022/05/23 01:45:45;;;;;;;2.97;2.33;;;;;;;20.01;48.27;94167.03;5090841;28;20290;-81
2022/05/23 01:48:12;;;;;;;3.37;2.70;;;;;;;20.30;48.36;94212.41;5090697;28;20209;-81
2022/05/23 01:50:39;;;;;;;3.07;2.87;;;;;;;19.35;48.41;94066.19;5090396;28;20197;-82
2022/05/23 01:53:07;;;;;;;2.83;2.63;;;;;;;19.73;48.74;94138.88;5090363;28;20284;-80
2022/05/23 01:55:35;;;;;;;2.50;2.30;;;;;;;19.99;48.42;94181.22;5089265;28;20207;-82
2022/05/23 01:58:02;;;;;;;2.67;2.47;;;;;;;20.00;48.43;94185.44;5090263;28;20205;-83
2022/05/23 02:03:15;;;;;;;3.17;2.63;;;;;;;20.20;48.60;94206.84;5090588;28;20197;-81
2022/05/23 02:05:42;;;;;;;2.50;2.30;;;;;;;19.14;48.63;94049.13;5090181;28;20193;-80
2022/05/23 02:08:09;;;;;;;3.70;2.63;;;;;;;19.68;48.56;94140.47;5090575;28;20196;-80
2022/05/23 02:10:38;;;;;;;3.67;2.70;;;;;;;20.03;48.77;94188.41;5089785;28;20574;-83
2022/05/23 02:13:05;;;;;;;2.90;2.70;;;;;;;20.14;48.87;94212.09;5090164;28;20277;-81
2022/05/23 02:15:34;;;;;;;3.10;2.80;;;;;;;19.81;48.83;94171.53;5090241;28;20189;-81
2022/05/23 02:18:02;;;;;;;2.70;2.50;;;;;;;19.98;48.80;94190.81;5090124;28;20288;-82
2022/05/23 02:20:32;;;;;;;3.07;2.77;;;;;;;19.86;49.01;94168.31;5089973;28;20197;-82
2022/05/23 02:22:59;;;;;;;7.47;2.60;;;;;;;19.81;49.00;94168.94;5090196;28;20216;-80
2022/05/23 02:25:27;;;;;;;2.50;2.40;;;;;;;20.07;49.14;94219.91;5090016;28;20190;-80
2022/05/23 02:27:56;;;;;;;3.53;2.73;;;;;;;19.77;49.57;94172.94;5090200;28;20212;-82
2022/05/23 02:30:23;;;;;;;2.83;2.57;;;;;;;20.05;49.39;94216.75;5089770;28;20545;-80
2022/05/23 02:32:51;;;;;;;2.73;2.53;;;;;;;19.97;49.37;94201.41;5089707;28;20193;-82
2022/05/23 02:35:19;;;;;;;4.07;2.87;;;;;;;20.04;49.35;94207.38;5089605;28;20201;-81
2022/05/23 02:37:47;;;;;;;3.10;2.80;;;;;;;19.71;49.38;94171.97;5089359;28;20190;-81
2022/05/23 02:40:14;;;;;;;5.00;2.77;;;;;;;19.97;49.52;94204.00;5089814;28;20212;-80
2022/05/23 02:42:41;;;;;;;3.53;2.83;;;;;;;20.03;49.55;94211.78;5089730;28;20250;-80
2022/05/23 02:45:10;;;;;;;3.10;2.90;;;;;;;19.77;49.60;94176.38;5089896;28;20683;-82
2022/05/23 02:47:37;;;;;;;3.47;3.17;;;;;;;20.02;49.70;94223.13;5089559;28;20182;-82
2022/05/23 02:50:08;;;;;;;2.60;2.40;;;;;;;20.02;49.85;94217.94;5089918;28;20728;-84
2022/05/23 02:52:35;;;;;;;3.70;3.23;;;;;;;19.92;49.98;94196.84;5089583;28;20219;-81
2022/05/23 02:55:02;;;;;;;7.83;2.97;;;;;;;20.03;49.83;94209.19;5090142;28;20203;-83
2022/05/23 02:57:29;;;;;;;3.10;2.90;;;;;;;20.04;49.92;94208.16;5089453;28;20580;-84
2022/05/23 02:59:56;;;;;;;5.20;2.97;;;;;;;19.91;49.83;94192.66;5089948;28;20182;-80
2022/05/23 03:05:10;;;;;;;6.10;2.73;;;;;;;20.07;50.02;94217.31;5089488;28;20193;-81
2022/05/23 03:07:37;;;;;;;2.87;2.67;;;;;;;19.96;49.90;94192.03;5090212;28;20189;-79
2022/05/23 03:10:06;;;;;;;3.20;2.90;;;;;;;20.09;50.01;94198.97;5093220;28;20217;-81
2022/05/23 03:12:34;;;;;;;3.47;2.97;;;;;;;19.66;49.93;94135.50;5093017;28;20193;-80
2022/05/23 03:15:01;;;;;;;3.10;2.90;;;;;;;20.10;50.32;94206.53;5093463;28;20637;-81
2022/05/23 03:17:28;;;;;;;6.93;3.00;;;;;;;20.04;50.16;94189.19;5093092;28;20288;-82
2022/05/23 03:19:55;;;;;;;3.07;2.70;;;;;;;20.15;50.15;94190.31;5092916;28;20391;-79
2022/05/23 03:27:53;;;;;;;4.13;2.70;;;;;;;20.24;50.09;94189.88;5092929;28;20176;-79
2022/05/23 03:30:20;;;;;;;4.97;3.40;;;;;;;20.14;50.16;94171.34;5093092;28;20209;-78
2022/05/23 03:32:47;;;;;;;3.33;3.03;;;;;;;20.28;50.27;94192.84;5093196;28;20193;-81
2022/05/23 03:35:14;;;;;;;7.50;3.20;;;;;;;20.31;50.13;94197.63;5093468;28;20202;-80
2022/05/23 03:37:43;;;;;;;5.30;2.90;;;;;;;20.19;50.25;94179.31;5093769;28;20193;-81
2022/05/23 03:40:11;;;;;;;3.13;2.93;;;;;;;20.01;49.96;94143.69;5093841;28;20552;-79
2022/05/23 03:42:38;;;;;;;4.07;3.10;;;;;;;20.45;50.33;94196.53;5092421;28;20188;-80
2022/05/23 03:45:08;;;;;;;3.67;3.23;;;;;;;20.49;50.14;94186.53;5093170;28;20200;-80
2022/05/23 03:47:35;;;;;;;3.00;2.77;;;;;;;20.53;49.95;94192.91;5092317;28;20193;-79
2022/05/23 03:50:01;;;;;;;3.63;3.00;;;;;;;20.57;49.92;94191.47;5093036;28;20221;-82
2022/05/23 03:52:28;;;;;;;3.57;3.07;;;;;;;20.54;50.00;94191.91;5093611;28;20550;-81
2022/05/23 03:54:56;;;;;;;5.33;2.93;;;;;;;20.67;49.85;94201.38;5093296;28;20205;-81
2022/05/23 03:57:24;;;;;;;5.43;3.13;;;;;;;20.29;49.84;94135.53;5092518;28;20190;-81
2022/05/23 03:59:52;;;;;;;3.07;2.77;;;;;;;20.79;49.91;94200.50;5093157;28;20193;-81
2022/05/23 04:02:20;;;;;;;3.17;2.97;;;;;;;20.84;50.10;94197.25;5095218;28;20240;-80
2022/05/23 04:04:48;;;;;;;6.83;3.40;;;;;;;20.35;50.16;94118.28;5106389;28;20198;-84
2022/05/23 04:07:14;;;;;;;6.40;2.90;;;;;;;20.92;50.05;94202.19;5092736;28;20223;-81
2022/05/23 04:09:42;;;;;;;4.00;3.00;;;;;;;20.96;50.43;94200.75;5091935;28;20240;-79
2022/05/23 04:12:11;;;;;;;5.20;3.47;;;;;;;21.01;50.28;94189.72;5092910;28;20193;-81
2022/05/23 04:14:37;;;;;;;6.10;3.40;;;;;;;20.88;50.66;94164.63;5092324;28;20197;-81
2022/05/23 04:17:06;;;;;;;12.77;3.50;;;;;;;20.98;50.54;94177.13;5092456;28;20247;-82
2022/05/23 04:19:33;;;;;;;3.53;3.23;;;;;;;21.24;50.06;94200.31;5091993;28;20198;-83
2022/05/23 04:22:00;;;;;;;3.47;3.17;;;;;;;21.15;49.88;94164.38;5091823;28;20186;-82
2022/05/23 04:24:26;;;;;;;3.55;3.15;;;;;;;20.82;49.82;94089.34;5091700;28;20196;-80
2022/05/23 04:26:55;;;;;;;6.20;3.37;;;;;;;21.63;49.65;94189.69;5092227;28;20193;-79
2022/05/23 04:29:24;;;;;;;3.97;3.27;;;;;;;21.73;49.59;94185.56;5091373;28;20727;-82
2022/05/23 04:31:51;;;;;;;3.07;2.87;;;;;;;21.81;49.66;94196.72;5091772;28;20190;-80
2022/05/23 04:37:03;;;;;;;6.80;3.70;;;;;;;21.49;49.25;94137.00;5091599;28;20557;-81
2022/05/23 04:39:30;;;;;;;6.07;3.30;;;;;;;21.93;49.30;94200.13;5091282;28;20193;-80
2022/05/23 04:41:56;;;;;;;5.13;3.47;;;;;;;21.97;49.50;94198.69;5091758;28;20189;-81
2022/05/23 04:44:25;;;;;;;4.25;3.30;;;;;;;21.88;49.37;94187.00;5091457;28;20185;-82
2022/05/23 04:49:49;;;;;;;3.08;2.88;;;;;;;22.16;49.28;94183.88;5091078;28;20224;-80
2022/05/23 04:52:22;;;;;;;6.70;3.27;;;;;;;22.23;49.05;94169.69;5091378;28;20200;-80
2022/05/23 04:54:49;;;;;;;3.07;2.87;;;;;;;22.33;49.07;94176.22;5091376;28;20190;-81
2022/05/23 04:57:16;;;;;;;5.40;3.10;;;;;;;21.66;49.04;94054.72;5091432;28;20204;-81
2022/05/23 04:59:45;;;;;;;2.70;2.50;;;;;;;22.64;49.08;94182.94;5091018;28;20185;-80
2022/05/23 05:02:12;;;;;;;2.85;2.40;;;;;;;22.58;49.02;94139.53;5095278;28;20284;-80
2022/05/23 05:04:39;;;;;;;3.78;2.90;;;;;;;23.10;48.97;94187.44;5094528;28;20240;-80
2022/05/23 05:07:06;;;;;;;2.75;2.55;;;;;;;23.31;48.70;94180.03;5092101;28;20560;-82
2022/05/23 05:09:33;;;;;;;5.60;2.80;;;;;;;23.44;48.30;94182.38;5091309;28;20225;-81
2022/05/23 05:12:00;;;;;;;2.85;2.63;;;;;;;23.54;48.07;94177.41;5092109;28;20182;-81
2022/05/23 05:14:27;;;;;;;4.57;2.45;;;;;;;23.65;47.60;94170.56;5090660;28;20200;-79
2022/05/23 05:16:56;;;;;;;4.38;2.40;;;;;;;23.48;47.41;94118.28;5091033;28;20194;-81
2022/05/23 05:19:22;;;;;;;3.65;2.42;;;;;;;23.93;48.42;94141.88;5090760;28;20201;-79
2022/05/23 05:21:49;;;;;;;5.35;2.08;;;;;;;24.58;48.90;94179.88;5091505;28;20220;-79
2022/05/23 05:24:17;;;;;;;2.92;2.03;;;;;;;24.61;49.15;94092.28;5090964;28;20186;-79
2022/05/23 05:26:44;;;;;;;4.18;2.00;;;;;;;25.75;48.45;94162.41;5090564;28;20236;-81
2022/05/23 05:29:11;;;;;;;3.15;1.85;;;;;;;26.42;48.06;94169.91;5091025;28;20186;-82
2022/05/23 05:31:44;;;;;;;3.03;1.70;;;;;;;27.06;46.64;94147.31;5089815;28;20194;-80
2022/05/23 05:34:17;;;;;;;3.22;1.90;;;;;;;27.93;45.46;94149.34;5090587;28;20616;-81
2022/05/23 05:36:48;;;;;;;2.25;1.80;;;;;;;28.85;43.86;94172.38;5090607;28;20181;-78
2022/05/23 05:39:18;;;;;;;2.05;1.70;;;;;;;29.50;42.71;94147.75;5090848;28;20197;-80
2022/05/23 05:41:50;;;;;;;1.70;1.60;;;;;;;30.53;41.01;94186.84;5090621;28;20248;-81
2022/05/23 05:44:21;;;;;;;1.83;1.50;;;;;;;31.25;39.75;94174.63;5090811;28;20200;-80
2022/05/23 05:46:53;;;;;;;4.97;1.73;;;;;;;32.20;38.36;94197.66;5090690;28;20196;-80
2022/05/23 05:49:23;;;;;;;5.70;1.70;;;;;;;32.94;36.85;94184.69;5091184;28;20205;-78
2022/05/23 05:51:53;;;;;;;5.38;1.70;;;;;;;33.86;35.58;94211.44;5090425;28;20216;-79
2022/05/23 05:54:22;;;;;;;6.68;1.63;;;;;;;34.43;33.96;94194.06;5090812;28;20190;-80
2022/05/23 05:56:50;;;;;;;4.72;1.80;;;;;;;34.82;33.01;94205.19;5090400;28;20641;-78
2022/05/23 05:59:18;;;;;;;2.90;1.80;;;;;;;34.93;32.40;94199.31;5090580;28;20190;-81
2022/05/23 06:01:45;;;;;;;5.30;1.60;;;;;;;34.88;31.85;94207.41;5089983;28;20193;-82
2022/05/23 06:04:12;;;;;;;3.45;1.95;;;;;;;34.58;31.87;94189.53;5090365;28;20201;-80
2022/05/23 06:12:09;;;;;;;2.67;1.75;;;;;;;33.99;31.98;94199.28;5090208;28;20192;-81
2022/05/23 06:14:36;;;;;;;3.65;2.05;;;;;;;33.60;32.04;94171.38;5090246;28;20200;-81
2022/05/23 06:17:06;;;;;;;6.15;1.92;;;;;;;33.53;31.92;94192.97;5090194;28;20200;-79
2022/05/23 06:19:38;;;;;;;3.10;1.88;;;;;;;33.33;31.93;94190.66;5089594;28;20198;-79
2022/05/23 06:22:10;;;;;;;5.95;2.30;;;;;;;33.16;31.89;94181.41;5090047;28;20182;-79
2022/05/23 06:24:37;;;;;;;3.38;2.28;;;;;;;33.02;31.66;94182.44;5090696;28;20185;-79
2022/05/23 06:27:06;;;;;;;9.25;3.00;;;;;;;32.87;31.75;94186.91;5090461;28;20193;-81
2022/05/23 06:29:33;;;;;;;3.10;2.03;;;;;;;32.74;32.17;94179.72;5090142;28;20256;-81
2022/05/23 06:32:01;;;;;;;3.28;2.13;;;;;;;32.60;31.91;94176.19;5090005;28;20212;-77
2022/05/23 06:34:28;;;;;;;3.13;2.08;;;;;;;32.47;31.95;94156.53;5091656;28;20232;-79
2022/05/23 06:36:55;;;;;;;3.55;1.85;;;;;;;32.69;32.51;94171.84;5091534;28;20182;-79
2022/05/23 06:39:23;;;;;;;12.70;2.33;;;;;;;32.93;33.16;94169.09;5090172;28;20182;-79
2022/05/23 06:41:50;;;;;;;4.45;2.03;;;;;;;32.48;33.17;94057.53;5090713;28;20201;-79
2022/05/23 06:44:18;;;;;;;2.70;2.03;;;;;;;33.59;33.03;94148.56;5093860;28;20201;-78
2022/05/23 06:46:46;;;;;;;6.50;2.30;;;;;;;34.09;32.95;94162.69;5093518;28;20189;-77
2022/05/23 06:49:13;;;;;;;2.83;1.60;;;;;;;34.57;32.32;94158.75;5093731;28;20189;-77
2022/05/23 06:51:41;;;;;;;3.97;2.10;;;;;;;34.74;31.44;94119.00;5093764;28;20697;-79
2022/05/23 06:54:08;;;;;;;10.75;2.70;;;;;;;35.45;31.20;94166.94;5093786;28;20200;-78
2022/05/23 06:56:36;;;;;;;2.55;2.10;;;;;;;35.89;30.72;94167.88;5093666;28;20598;-79
2022/05/23 06:59:04;;;;;;;4.10;2.15;;;;;;;36.24;29.76;94168.75;5094149;28;20190;-80
2022/05/23 07:01:31;;;;;;;2.50;1.60;;;;;;;36.24;29.22;94142.13;5093329;28;20231;-79
2022/05/23 07:03:57;;;;;;;1.85;1.75;;;;;;;36.70;28.52;94172.66;5094176;28;20185;-82
2022/05/23 07:12:28;;;;;;;3.17;2.22;;;;;;;37.24;27.78;94173.06;5092878;28;20234;-79
2022/05/23 07:14:57;;;;;;;2.80;2.08;;;;;;;37.49;27.73;94168.78;5093203;28;20189;-80
2022/05/23 07:17:24;;;;;;;4.50;2.33;;;;;;;37.44;27.64;94136.94;5093809;28;20279;-81
2022/05/23 07:19:51;;;;;;;4.03;2.10;;;;;;;38.05;27.23;94174.81;5093147;28;20196;-80
2022/05/23 07:22:17;;;;;;;4.85;1.92;;;;;;;38.37;27.14;94176.00;5093525;28;20186;-80
2022/05/23 07:24:45;;;;;;;3.47;1.95;;;;;;;38.71;26.87;94176.84;5093903;28;20553;-82
2022/05/23 07:27:14;;;;;;;3.45;2.28;;;;;;;38.06;26.49;94021.47;5093522;28;20253;-79
2022/05/23 07:29:41;;;;;;;3.45;1.90;;;;;;;39.38;26.46;94174.94;5093805;28;20661;-80
2022/05/23 07:32:11;;;;;;;2.67;2.15;;;;;;;39.60;25.87;94161.16;5093181;28;20185;-81
2022/05/23 07:34:38;;;;;;;4.22;1.90;;;;;;;40.01;25.32;94170.09;5093268;28;20673;-80
2022/05/23 07:37:05;;;;;;;3.15;1.58;;;;;;;40.31;25.22;94164.47;5093142;28;20197;-79
2022/05/23 07:39:32;;;;;;;5.30;1.90;;;;;;;40.58;24.86;94158.38;5093388;28;20220;-79
2022/05/23 07:41:59;;;;;;;2.95;1.80;;;;;;;40.83;24.39;94161.75;5092878;28;20684;-79
2022/05/23 07:44:28;;;;;;;2.20;1.95;;;;;;;40.88;24.58;94133.88;5093417;28;20249;-80
2022/05/23 07:46:55;;;;;;;2.35;1.92;;;;;;;41.26;24.08;94154.84;5093075;28;20281;-80
2022/05/23 07:49:21;;;;;;;2.38;1.48;;;;;;;41.46;23.87;94163.03;5092851;28;20193;-79
2022/05/23 07:51:48;;;;;;;1.70;1.60;;;;;;;41.61;23.62;94167.59;5092378;28;20232;-78
2022/05/23 08:02:28;;;;;;;4.57;1.90;;;;;;;42.21;22.61;94181.66;5010253;28;20194;-80
2022/05/23 08:04:55;;;;;;;3.05;1.75;;;;;;;42.28;23.08;94176.47;5010136;28;20303;-79
2022/05/23 08:07:23;;;;;;;3.42;1.95;;;;;;;42.33;22.52;94175.41;5010008;28;20283;-79
2022/05/23 08:09:50;;;;;;;1.85;1.75;;;;;;;42.37;22.56;94176.25;5010101;28;20279;-80
2022/05/23 08:12:17;;;;;;;4.28;1.55;;;;;;;42.32;22.31;94177.31;5009840;28;20195;-80
2022/05/23 08:14:46;;;;;;;2.17;1.63;;;;;;;42.23;22.38;94178.63;5011848;28;20200;-80
2022/05/23 08:17:12;;;;;;;7.32;2.15;;;;;;;42.13;22.30;94176.47;5010768;28;20184;-80
2022/05/23 08:19:40;;;;;;;3.70;1.88;;;;;;;42.01;22.01;94171.97;5009738;28;20698;-81
2022/05/23 08:22:07;;;;;;;2.05;1.85;;;;;;;41.74;22.07;94165.59;5010076;28;20617;-81
2022/05/23 08:24:34;;;;;;;2.45;1.73;;;;;;;41.46;22.55;94160.34;5009923;28;20250;-82
2022/05/23 08:27:01;;;;;;;3.63;1.90;;;;;;;41.17;22.69;94148.84;5010137;28;20588;-81
2022/05/23 08:29:29;;;;;;;3.90;1.80;;;;;;;40.98;22.44;94175.56;5010308;28;20227;-80
2022/05/23 08:31:58;;;;;;;2.42;1.65;;;;;;;40.73;22.22;94156.09;5009578;28;20235;-80
2022/05/23 08:34:25;;;;;;;3.28;1.58;;;;;;;40.56;22.36;94159.88;5009599;28;20232;-81
2022/05/23 08:36:52;;;;;;;1.80;1.70;;;;;;;40.35;22.67;94163.47;5009454;28;20188;-81
2022/05/23 08:39:20;;;;;;;2.95;1.60;;;;;;;39.98;22.49;94138.59;5038872;28;20197;-80
2022/05/23 08:41:51;;;;;;;2.47;1.60;;;;;;;39.91;22.69;94164.41;5092964;28;20191;-82
2022/05/23 08:44:28;;;;;;;2.05;1.70;;;;;;;39.64;22.54;94162.06;5091786;28;20193;-82
2022/05/23 08:47:03;;;;;;;5.75;1.90;;;;;;;39.36;22.99;94153.88;5091759;28;20192;-82
2022/05/23 08:49:45;;;;;;;1.75;1.58;;;;;;;39.13;23.09;94163.41;5093101;28;20244;-84
2022/05/23 08:52:15;;;;;;;2.35;1.50;;;;;;;38.94;23.28;94155.13;5092084;28;20696;-82
2022/05/23 08:54:50;;;;;;;1.77;1.67;;;;;;;38.77;23.49;94159.50;5092025;28;20190;-81
2022/05/23 08:57:25;;;;;;;1.85;1.60;;;;;;;38.60;23.23;94159.63;5091542;28;20606;-83
2022/05/23 08:59:55;;;;;;;2.55;1.40;;;;;;;38.45;23.37;94150.34;5091979;28;20276;-80
2022/05/23 09:02:35;;;;;;;3.08;2.08;;;;;;;38.30;23.34;94150.88;5091347;28;20204;-80
2022/05/23 09:05:06;;;;;;;5.32;1.83;;;;;;;38.09;23.68;94135.66;5091582;28;20579;-80
2022/05/23 09:07:40;;;;;;;2.28;1.50;;;;;;;37.97;23.98;94148.94;5091045;28;20924;-80
2022/05/23 09:10:13;;;;;;;2.10;1.60;;;;;;;37.80;24.20;94155.13;5091573;28;20665;-83
2022/05/23 09:12:40;;;;;;;4.38;1.70;;;;;;;37.61;23.97;94141.41;5098439;28;20192;-79
2022/05/23 09:15:08;;;;;;;3.63;1.70;;;;;;;37.43;24.24;94143.38;5095341;28;20186;-83
2022/05/23 09:17:44;;;;;;;1.70;1.60;;;;;;;36.74;24.42;94063.56;5091311;28;20260;-78
2022/05/23 09:20:15;;;;;;;3.97;1.90;;;;;;;36.96;24.21;94134.56;5091866;28;20221;-79
2022/05/23 09:22:47;;;;;;;5.40;1.92;;;;;;;36.76;24.63;94126.13;5090738;28;20239;-78
2022/05/23 09:25:17;;;;;;;4.40;1.85;;;;;;;36.44;24.42;94090.09;5091019;28;20197;-80
2022/05/23 09:27:50;;;;;;;1.65;1.55;;;;;;;36.54;24.64;94120.97;5091844;28;20208;-80
2022/05/23 09:30:21;;;;;;;1.67;1.50;;;;;;;36.36;24.58;94123.63;5090662;28;20577;-79
2022/05/23 09:32:54;;;;;;;1.92;1.70;;;;;;;36.23;24.98;94129.91;5090853;28;20190;-79
2022/05/23 09:35:23;;;;;;;6.57;2.38;;;;;;;35.34;24.85;94006.84;5090830;28;20189;-79
2022/05/23 09:38:07;;;;;;;3.05;1.70;;;;;;;35.92;25.09;94122.78;5090940;28;20193;-82
2022/05/23 09:40:37;;;;;;;3.30;1.83;;;;;;;35.76;25.04;94111.03;5090934;28;20204;-80
2022/05/23 09:49:09;;;;;;;2.40;1.73;;;;;;;35.26;25.63;94113.19;5090323;28;20219;-79
2022/05/23 09:51:49;;;;;;;1.70;1.60;;;;;;;35.06;25.74;94101.22;5090690;28;20232;-80
2022/05/23 09:54:20;;;;;;;3.08;2.15;;;;;;;35.01;25.82;94119.97;5090558;28;20218;-78
2022/05/23 09:56:49;;;;;;;2.38;1.48;;;;;;;34.03;25.70;93977.34;5091069;28;20197;-82
2022/05/23 09:59:27;;;;;;;1.63;1.52;;;;;;;34.47;26.09;94066.81;5090594;28;20246;-80
2022/05/23 10:01:55;;;;;;;2.25;2.03;;;;;;;34.65;26.21;94108.31;5090468;28;20193;-81
2022/05/23 10:04:28;;;;;;;2.30;1.98;;;;;;;34.56;26.20;94101.41;5089796;28;20189;-82
2022/05/23 10:06:55;;;;;;;2.75;2.03;;;;;;;34.41;26.40;94092.69;5090553;28;20259;-82
2022/05/23 10:09:26;;;;;;;3.92;2.03;;;;;;;34.39;26.17;94105.47;5090028;28;20584;-80
2022/05/23 10:11:55;;;;;;;4.60;1.95;;;;;;;33.76;26.31;94013.47;5090713;28;20245;-81
2022/05/23 10:14:24;;;;;;;2.00;1.80;;;;;;;34.23;26.70;94103.47;5090120;28;20193;-82
2022/05/23 10:16:54;;;;;;;2.05;1.60;;;;;;;33.92;26.39;94064.31;5089860;28;20177;-82
2022/05/23 10:19:31;;;;;;;4.13;1.83;;;;;;;34.05;26.68;94078.66;5090311;28;20238;-81
2022/05/23 10:22:13;;;;;;;5.82;1.90;;;;;;;33.97;26.60;94085.47;5090372;28;20194;-80
2022/05/23 10:24:49;;;;;;;2.33;1.60;;;;;;;33.89;26.55;94097.53;5090936;28;20316;-81
2022/05/23 10:27:22;;;;;;;5.30;2.58;;;;;;;33.36;26.95;94031.78;5090429;28;20220;-80
2022/05/23 10:29:54;;;;;;;2.03;1.77;;;;;;;33.73;27.01;94088.34;5090162;28;20340;-82
2022/05/23 10:32:29;;;;;;;3.17;2.20;;;;;;;33.67;26.86;94095.59;5089717;28;20217;-81
2022/05/23 10:35:07;;;;;;;3.08;1.73;;;;;;;33.60;26.74;94073.25;5090040;28;20225;-81
2022/05/23 10:37:36;;;;;;;2.70;1.55;;;;;;;33.44;26.82;94065.59;5089908;28;20193;-82
2022/05/23 10:42:58;;;;;;;2.17;1.80;;;;;;;33.18;26.67;94043.31;5089943;28;20216;-81
2022/05/23 10:45:32;;;;;;;1.80;1.70;;;;;;;33.17;27.20;94050.47;5090227;28;20235;-82
2022/05/23 10:48:23;;;;;;;3.78;1.90;;;;;;;33.22;26.88;94060.97;5089966;28;20193;-82
2022/05/23 10:50:55;;;;;;;2.40;1.77;;;;;;;33.14;27.07;94063.53;5089911;28;20209;-80
2022/05/23 10:53:38;;;;;;;2.10;1.60;;;;;;;33.09;27.52;94056.47;5089826;28;20189;-81
2022/05/23 10:56:17;;;;;;;4.32;1.63;;;;;;;33.02;27.31;94060.56;5089897;28;20193;-78
2022/05/23 10:58:50;;;;;;;2.45;1.83;;;;;;;32.95;27.33;94064.41;5089643;28;20197;-80
2022/05/23 11:01:41;;;;;;;2.25;1.67;;;;;;;32.89;27.47;94052.28;5089677;28;20274;-80
2022/05/23 11:04:19;;;;;;;3.28;1.80;;;;;;;32.82;27.28;94070.44;5089498;28;20652;-80
2022/05/23 11:07:02;;;;;;;1.80;1.70;;;;;;;32.75;27.19;94063.94;5090383;28;20283;-80
2022/05/23 11:09:37;;;;;;;2.65;1.60;;;;;;;32.71;27.37;94061.09;5091334;28;20196;-81
2022/05/23 11:12:17;;;;;;;2.22;1.80;;;;;;;32.52;27.38;94034.69;5091060;28;20240;-80
2022/05/23 11:14:53;;;;;;;2.55;1.83;;;;;;;32.58;27.54;94060.00;5091454;28;20189;-80
2022/05/23 11:17:33;;;;;;;4.57;1.70;;;;;;;32.46;27.51;94046.44;5093078;28;20190;-79
2022/05/23 11:20:10;;;;;;;3.85;1.98;;;;;;;32.45;27.33;94050.16;5101413;28;20664;-79
2022/05/23 11:22:44;;;;;;;2.70;1.67;;;;;;;32.38;27.35;94053.16;5092231;28;20545;-82
2022/05/23 11:25:23;;;;;;;2.03;1.70;;;;;;;31.80;27.55;93968.06;5090131;28;20243;-81
2022/05/23 11:36:10;;;;;;;2.92;1.63;;;;;;;32.05;27.61;94051.56;5096166;28;20204;-80
2022/05/23 11:38:45;;;;;;;1.65;1.55;;;;;;;32.00;27.63;94051.66;5098309;28;20185;-79
2022/05/23 11:41:30;;;;;;;1.83;1.70;;;;;;;31.93;28.01;94054.66;5093240;28;20602;-81
2022/05/23 11:43:57;;;;;;;2.63;2.00;;;;;;;31.64;27.80;94015.09;5093726;28;20221;-82
2022/05/23 11:46:27;;;;;;;1.67;1.58;;;;;;;31.77;28.11;94046.09;5095530;28;20193;-79
2022/05/23 11:48:58;;;;;;;1.85;1.63;;;;;;;31.69;27.78;94042.25;5100760;28;20190;-79
2022/05/23 11:51:37;;;;;;;1.95;1.85;;;;;;;31.63;28.17;94040.75;5093623;28;20209;-79
2022/05/23 11:54:14;;;;;;;5.60;1.75;;;;;;;31.58;28.10;94053.25;5093384;28;20221;-78
2022/05/23 11:56:48;;;;;;;5.20;1.60;;;;;;;31.53;28.11;94048.81;5093354;28;20193;-78
2022/05/23 11:59:49;;;;;;;5.80;2.00;;;;;;;31.48;28.32;94052.31;5093885;28;20194;-80
2022/05/23 12:02:23;;;;;;;1.52;1.40;;;;;;;31.36;28.17;94043.22;5093660;28;20193;-81
2022/05/23 12:05:10;;;;;;;4.07;1.77;;;;;;;31.30;28.36;94034.56;5093098;28;20201;-80
2022/05/23 12:07:56;;;;;;;1.83;1.70;;;;;;;31.36;28.05;94057.22;5093173;28;20190;-82
2022/05/23 12:10:58;;;;;;;5.53;1.58;;;;;;;31.30;28.15;94050.41;5093028;28;20213;-80
2022/05/23 12:13:40;;;;;;;2.65;1.60;;;;;;;31.26;28.47;94049.38;5092713;28;20178;-80
2022/05/23 12:16:41;;;;;;;2.95;1.83;;;;;;;31.17;28.19;94045.78;5092364;28;20185;-82
2022/05/23 12:19:32;;;;;;;2.10;1.80;;;;;;;30.90;28.53;93996.97;5092586;28;20199;-83
2022/05/23 12:22:24;;;;;;;2.85;2.13;;;;;;;31.16;28.68;94034.44;5093249;28;20199;-82
2022/05/23 12:25:22;;;;;;;1.75;1.65;;;;;;;31.15;28.62;94032.09;5092737;28;20569;-81
2022/05/23 12:28:15;;;;;;;2.35;2.17;;;;;;;31.11;28.44;94037.13;5097554;28;20202;-81
2022/05/23 12:31:01;;;;;;;2.40;1.70;;;;;;;30.99;28.68;94031.47;5103272;28;20197;-82
2022/05/23 12:33:28;;;;;;;2.20;1.80;;;;;;;30.76;28.54;94005.84;5104070;28;20229;-82
2022/05/23 12:36:06;;;;;;;5.57;1.63;;;;;;;30.90;28.83;94041.88;5108744;28;20197;-80
2022/05/23 12:38:46;;;;;;;1.90;1.80;;;;;;;30.58;28.26;93992.28;5105593;28;20202;-81
2022/05/23 12:41:32;;;;;;;6.22;2.20;;;;;;;30.59;28.43;94000.97;5103089;28;20181;-81
2022/05/23 12:44:31;;;;;;;4.00;1.80;;;;;;;30.73;28.74;94036.22;5099433;28;20269;-81
2022/05/23 12:47:09;;;;;;;1.70;1.60;;;;;;;30.03;28.61;93941.59;5012202;28;20192;-80